Time;durP1;ratioP1;P1;durP2;ratioP2;P2;SDS_P1;SDS_P2;PMS_P1;PMS_P2;Temp;Humidity;BMP_temperature;BMP_pressure;BME280_temperature;BME280_humidity;BME280_pressure;Samples;Min_cycle;Max_cycle;Signal;HPM_P1;HPM_P2
2023/03/15 00:01:06;;;;;;;32.23;15.23;;;;;;;6.87;55.27;93863.44;5031980;28;20570;-78
2023/03/15 00:03:36;;;;;;;32.40;15.47;;;;;;;6.83;56.39;93872.75;5031900;28;20183;-78
2023/03/15 00:06:02;;;;;;;25.90;13.37;;;;;;;6.78;55.67;93868.13;5031530;28;20183;-78
2023/03/15 00:08:28;;;;;;;31.80;14.63;;;;;;;6.73;56.63;93861.94;5031771;28;20200;-78
2023/03/15 00:10:54;;;;;;;34.33;15.23;;;;;;;6.75;57.22;93859.91;5032134;28;20188;-78
2023/03/15 00:13:19;;;;;;;36.37;14.17;;;;;;;6.76;57.45;93861.50;5031748;28;20229;-78
2023/03/15 00:15:47;;;;;;;33.47;15.70;;;;;;;6.71;56.68;93863.97;5012391;28;21266;-78
2023/03/15 00:18:14;;;;;;;29.57;14.97;;;;;;;6.74;56.04;93876.63;5031830;28;20178;-78
2023/03/15 00:20:39;;;;;;;28.67;13.03;;;;;;;6.72;56.10;93862.94;5032263;28;21076;-78
2023/03/15 00:23:05;;;;;;;29.90;13.07;;;;;;;6.73;56.83;93865.34;5032199;28;20255;-78
2023/03/15 00:25:30;;;;;;;20.60;10.30;;;;;;;6.72;55.55;93863.75;5032018;28;20254;-78
2023/03/15 00:27:56;;;;;;;22.13;10.50;;;;;;;6.54;55.53;93828.88;5031521;28;20273;-78
2023/03/15 00:30:21;;;;;;;18.20;9.93;;;;;;;6.71;56.24;93843.03;5031696;28;20551;-78
2023/03/15 00:32:46;;;;;;;19.03;9.50;;;;;;;6.69;55.60;93835.41;5031913;28;20180;-78
2023/03/15 00:35:12;;;;;;;15.80;8.70;;;;;;;6.83;54.75;93851.81;5031502;28;20645;-78
2023/03/15 00:37:38;;;;;;;15.67;8.90;;;;;;;6.69;55.32;93829.38;5034957;28;20189;-78
2023/03/15 00:40:06;;;;;;;18.10;9.20;;;;;;;6.83;55.30;93849.97;5035625;28;20187;-77
2023/03/15 00:42:32;;;;;;;19.40;9.90;;;;;;;6.53;56.16;93795.91;5035325;28;20211;-78
2023/03/15 00:44:58;;;;;;;22.20;10.70;;;;;;;6.79;57.26;93838.34;5035181;28;20224;-78
2023/03/15 00:47:24;;;;;;;26.50;11.37;;;;;;;6.75;56.11;93838.97;5035301;28;20199;-78
2023/03/15 00:49:50;;;;;;;21.60;10.43;;;;;;;6.78;56.31;93841.97;5035312;28;20164;-77
2023/03/15 00:52:17;;;;;;;22.13;10.83;;;;;;;6.78;56.76;93820.25;5035352;28;20214;-78
2023/03/15 00:54:43;;;;;;;21.93;12.33;;;;;;;6.91;57.53;93828.00;5035044;28;20665;-77
2023/03/15 00:57:08;;;;;;;19.23;10.80;;;;;;;6.97;57.14;93823.72;5034934;28;20203;-78
2023/03/15 00:59:34;;;;;;;16.63;9.17;;;;;;;6.84;56.83;93806.31;5017606;28;20211;-78
2023/03/15 01:02:01;;;;;;;15.63;8.80;;;;;;;7.02;57.00;93829.91;5035393;28;20607;-78
2023/03/15 01:04:26;;;;;;;17.57;8.90;;;;;;;7.05;55.67;93824.25;5035363;28;20175;-78
2023/03/15 01:06:51;;;;;;;21.10;11.17;;;;;;;6.77;55.84;93777.59;5033605;28;20606;-79
2023/03/15 01:09:17;;;;;;;20.57;9.53;;;;;;;7.05;55.76;93815.59;5035039;28;20244;-78
2023/03/15 01:11:42;;;;;;;22.60;10.20;;;;;;;7.11;55.45;93815.53;5034682;28;20251;-78
2023/03/15 01:14:08;;;;;;;16.20;9.30;;;;;;;7.16;55.48;93813.09;5035102;28;20287;-78
2023/03/15 01:16:35;;;;;;;18.20;8.80;;;;;;;7.07;55.21;93790.84;5035198;28;20183;-78
2023/03/15 01:19:00;;;;;;;14.53;7.70;;;;;;;7.28;55.08;93812.38;5017421;28;20561;-79
2023/03/15 01:21:26;;;;;;;20.73;9.93;;;;;;;7.28;56.41;93807.94;5035501;28;20180;-78
2023/03/15 01:23:52;;;;;;;18.47;10.13;;;;;;;7.19;56.57;93791.72;5033613;28;20416;-78
2023/03/15 01:26:18;;;;;;;17.40;8.77;;;;;;;7.30;56.26;93797.25;5035038;28;20254;-79
2023/03/15 01:28:45;;;;;;;14.17;7.97;;;;;;;7.21;56.46;93781.03;5034651;28;20282;-79
2023/03/15 01:31:18;;;;;;;13.43;7.47;;;;;;;7.28;56.20;93789.63;5034653;28;20180;-78
2023/03/15 01:33:43;;;;;;;12.97;7.23;;;;;;;7.32;55.53;93790.00;5034785;28;20176;-79
2023/03/15 01:36:10;;;;;;;18.43;7.30;;;;;;;7.29;55.94;93793.03;5034518;28;20674;-79
2023/03/15 01:38:36;;;;;;;17.30;7.40;;;;;;;7.24;56.20;93790.28;5034537;28;20218;-78
2023/03/15 01:41:02;;;;;;;13.10;8.17;;;;;;;7.19;56.38;93773.41;5035026;28;20191;-79
2023/03/15 01:43:30;;;;;;;11.80;7.53;;;;;;;7.24;56.15;93777.19;5034505;28;20275;-78
2023/03/15 01:46:02;;;;;;;14.10;8.70;;;;;;;7.16;56.29;93781.69;5034426;28;20227;-79
2023/03/15 01:48:33;;;;;;;24.80;10.30;;;;;;;7.11;56.52;93778.91;5034282;28;20196;-79
2023/03/15 01:51:02;;;;;;;20.83;9.90;;;;;;;7.09;57.05;93774.94;5035008;28;20171;-79
2023/03/15 01:53:30;;;;;;;20.97;10.20;;;;;;;6.99;56.97;93754.50;5034145;28;20176;-79
2023/03/15 01:55:57;;;;;;;27.40;12.33;;;;;;;7.08;57.93;93760.25;5034372;28;20633;-79
2023/03/15 01:58:25;;;;;;;29.30;12.77;;;;;;;7.08;58.56;93763.66;5034764;28;20179;-78
2023/03/15 02:00:51;;;;;;;24.63;11.10;;;;;;;7.07;58.01;93756.81;5034235;28;20678;-79
2023/03/15 02:03:24;;;;;;;26.43;11.03;;;;;;;7.04;57.90;93754.63;5034035;28;20266;-79
2023/03/15 02:05:55;;;;;;;27.60;11.33;;;;;;;7.04;58.30;93746.78;5033705;28;20172;-78
2023/03/15 02:08:24;;;;;;;22.13;11.27;;;;;;;7.01;58.21;93739.34;5033792;28;20204;-78
2023/03/15 02:10:52;;;;;;;24.83;10.60;;;;;;;6.91;58.80;93722.59;5033692;28;20215;-78
2023/03/15 02:13:22;;;;;;;19.03;9.87;;;;;;;7.03;58.24;93741.75;5033548;28;20245;-78
2023/03/15 02:15:48;;;;;;;21.43;10.37;;;;;;;7.03;58.07;93737.34;5031718;28;20176;-78
2023/03/15 02:18:15;;;;;;;16.70;8.80;;;;;;;7.05;57.99;93729.28;5033628;28;20561;-78
2023/03/15 02:20:59;;;;;;;17.20;8.33;;;;;;;6.82;57.89;93709.00;5034102;28;20164;-78
2023/03/15 02:23:25;;;;;;;15.07;8.30;;;;;;;6.91;58.01;93725.19;5034149;28;20191;-78
2023/03/15 02:26:13;;;;;;;22.63;10.52;;;;;;;6.68;59.99;93723.97;5032593;28;20883;-78
2023/03/15 02:28:39;;;;;;;16.93;9.40;;;;;;;6.67;60.51;93726.81;5033442;28;20195;-78
2023/03/15 02:31:05;;;;;;;23.40;9.90;;;;;;;6.64;60.34;93719.41;5024840;28;20183;-78
2023/03/15 02:33:45;;;;;;;23.80;12.60;;;;;;;6.59;60.55;93727.06;5032534;28;20470;-78
2023/03/15 02:36:25;;;;;;;25.33;12.10;;;;;;;6.52;61.17;93731.56;5033819;28;20413;-78
2023/03/15 02:38:52;;;;;;;24.83;11.40;;;;;;;6.54;61.23;93725.13;5033767;28;20178;-78
2023/03/15 02:41:24;;;;;;;25.90;11.40;;;;;;;6.33;61.39;93713.22;5033696;28;20188;-78
2023/03/15 02:43:54;;;;;;;30.33;12.00;;;;;;;6.43;61.66;93728.41;5033268;28;20639;-78
2023/03/15 02:46:21;;;;;;;22.70;10.90;;;;;;;6.45;61.37;93721.16;5032516;28;20230;-78
2023/03/15 02:48:48;;;;;;;23.27;11.17;;;;;;;6.46;61.26;93720.16;5033171;28;20199;-78
2023/03/15 02:51:20;;;;;;;18.52;9.80;;;;;;;6.44;60.23;93720.38;5033227;28;20523;-78
2023/03/15 02:53:45;;;;;;;23.13;9.93;;;;;;;6.37;60.36;93717.00;5023526;28;20899;-78
2023/03/15 02:56:13;;;;;;;21.63;7.90;;;;;;;6.35;60.23;93716.41;5033143;28;20263;-78
2023/03/15 02:58:38;;;;;;;17.30;8.77;;;;;;;6.38;60.29;93713.38;5033548;28;20172;-78
2023/03/15 03:01:04;;;;;;;20.67;9.43;;;;;;;6.39;60.01;93703.75;5031717;28;20781;-78
2023/03/15 03:03:29;;;;;;;16.27;8.57;;;;;;;6.35;59.69;93699.94;5033406;28;20183;-78
2023/03/15 03:05:55;;;;;;;21.50;9.07;;;;;;;6.38;59.66;93704.75;5033129;28;20176;-79
2023/03/15 03:08:20;;;;;;;19.20;10.17;;;;;;;6.35;60.24;93700.75;5031647;28;20433;-78
2023/03/15 03:10:45;;;;;;;18.90;8.53;;;;;;;6.29;60.41;93698.19;5032869;28;20179;-79
2023/03/15 03:13:11;;;;;;;14.97;8.50;;;;;;;6.26;61.04;93688.94;5032668;28;20168;-79
2023/03/15 03:15:36;;;;;;;23.07;12.47;;;;;;;6.24;61.04;93693.56;5032604;28;20257;-79
2023/03/15 03:18:02;;;;;;;28.50;14.33;;;;;;;6.15;61.12;93683.59;5032674;28;20176;-78
2023/03/15 03:20:27;;;;;;;29.30;14.80;;;;;;;6.13;61.50;93688.25;5032814;28;20734;-78
2023/03/15 03:22:54;;;;;;;29.57;14.40;;;;;;;6.15;61.68;93692.25;5032832;28;20543;-78
2023/03/15 03:25:20;;;;;;;26.73;13.40;;;;;;;6.03;62.63;93675.66;5032590;28;20179;-78
2023/03/15 03:27:46;;;;;;;29.07;14.53;;;;;;;6.08;62.75;93675.81;5032622;28;20195;-78
2023/03/15 03:30:13;;;;;;;36.93;15.00;;;;;;;6.09;62.36;93679.22;5032401;28;20187;-78
2023/03/15 03:32:39;;;;;;;24.40;14.37;;;;;;;6.10;63.20;93684.25;5032495;28;20172;-78
2023/03/15 03:35:05;;;;;;;29.77;15.63;;;;;;;6.02;63.96;93671.44;5032577;28;20179;-78
2023/03/15 03:37:30;;;;;;;28.93;15.20;;;;;;;6.10;63.83;93673.00;5032692;28;20222;-78
2023/03/15 03:39:57;;;;;;;29.33;14.57;;;;;;;6.10;63.98;93676.41;5032298;28;20176;-78
2023/03/15 03:42:22;;;;;;;29.65;16.98;;;;;;;6.03;64.16;93670.44;5030878;28;20417;-77
2023/03/15 03:44:49;;;;;;;21.33;13.67;;;;;;;5.86;64.92;93633.56;5032160;28;20315;-78
2023/03/15 03:47:15;;;;;;;33.47;15.27;;;;;;;6.17;63.78;93666.72;5032165;28;20199;-78
2023/03/15 03:49:40;;;;;;;31.70;16.07;;;;;;;6.01;64.00;93654.97;5032077;28;20183;-78
2023/03/15 03:52:05;;;;;;;28.37;13.80;;;;;;;5.98;64.00;93642.34;5032382;28;20186;-78
2023/03/15 03:54:31;;;;;;;29.50;15.03;;;;;;;6.17;64.24;93661.47;5032327;28;20178;-78
2023/03/15 03:56:57;;;;;;;34.67;16.03;;;;;;;6.16;64.83;93657.28;5032148;28;20214;-78
2023/03/15 03:59:22;;;;;;;39.17;20.23;;;;;;;6.18;64.63;93644.00;5031839;28;20631;-78
2023/03/15 04:01:47;;;;;;;49.30;20.50;;;;;;;6.25;64.89;93648.16;5032132;28;20176;-78
2023/03/15 04:04:13;;;;;;;55.70;25.87;;;;;;;6.28;63.81;93649.53;5031960;28;20202;-78
2023/03/15 04:06:44;;;;;;;54.03;24.27;;;;;;;6.25;63.75;93642.94;5031696;28;20594;-78
2023/03/15 04:09:11;;;;;;;47.05;22.85;;;;;;;6.26;63.87;93643.72;5030393;28;20436;-78
2023/03/15 04:11:44;;;;;;;50.37;22.97;;;;;;;6.32;63.44;93638.44;5035722;28;20183;-78
2023/03/15 04:14:11;;;;;;;60.03;25.03;;;;;;;6.41;64.84;93646.81;5038752;28;20286;-78
2023/03/15 04:16:36;;;;;;;51.20;25.63;;;;;;;6.41;63.13;93645.00;5038747;28;20697;-78
2023/03/15 04:19:02;;;;;;;50.60;23.13;;;;;;;6.23;62.90;93616.22;5038417;28;20199;-78
2023/03/15 04:21:30;;;;;;;49.00;26.33;;;;;;;6.43;63.44;93652.63;5043220;28;20170;-78
2023/03/15 04:23:59;;;;;;;49.43;24.33;;;;;;;6.38;63.24;93653.28;5043572;28;20221;-79
2023/03/15 04:26:25;;;;;;;58.10;22.97;;;;;;;6.42;62.72;93648.41;5038285;28;20172;-78
2023/03/15 04:28:55;;;;;;;45.60;23.37;;;;;;;6.41;62.53;93645.00;5038019;28;20205;-79
2023/03/15 04:31:25;;;;;;;48.63;23.50;;;;;;;6.40;62.37;93626.91;5038488;28;20187;-78
2023/03/15 04:33:52;;;;;;;46.00;25.20;;;;;;;6.44;62.30;93641.97;5037262;28;20487;-78
2023/03/15 04:36:18;;;;;;;45.60;21.93;;;;;;;6.37;62.24;93628.16;5031332;28;20306;-78
2023/03/15 04:38:45;;;;;;;43.00;22.77;;;;;;;6.51;61.91;93641.09;5034093;28;20255;-78
2023/03/15 04:41:12;;;;;;;41.67;20.53;;;;;;;6.51;62.07;93630.63;5036557;28;20190;-78
2023/03/15 04:43:38;;;;;;;53.33;24.87;;;;;;;6.40;62.65;93612.03;5035760;28;20175;-78
2023/03/15 04:46:04;;;;;;;49.70;23.17;;;;;;;6.55;62.42;93631.81;5033043;28;20725;-77
2023/03/15 04:48:29;;;;;;;46.10;23.57;;;;;;;6.56;61.95;93638.66;5030362;28;20804;-79
2023/03/15 04:50:55;;;;;;;39.37;19.77;;;;;;;6.55;60.89;93640.47;5037237;28;20436;-78
2023/03/15 04:53:21;;;;;;;47.43;20.63;;;;;;;6.53;60.66;93634.63;5033853;28;20183;-78
2023/03/15 04:55:46;;;;;;;37.35;17.48;;;;;;;6.41;60.62;93612.81;5037156;28;20417;-78
2023/03/15 04:58:12;;;;;;;27.95;14.77;;;;;;;6.61;58.27;93639.59;5036847;28;21097;-79
2023/03/15 05:00:37;;;;;;;39.93;18.10;;;;;;;6.66;59.33;93631.09;5036946;28;20412;-79
2023/03/15 05:03:03;;;;;;;25.63;14.63;;;;;;;6.75;59.16;93632.38;5038009;28;20414;-80
2023/03/15 05:05:31;;;;;;;23.47;9.77;;;;;;;6.76;57.54;93641.84;5037839;28;20233;-79
2023/03/15 05:07:56;;;;;;;24.00;8.77;;;;;;;6.76;56.63;93639.22;5037777;28;20203;-78
2023/03/15 05:10:22;;;;;;;25.90;11.80;;;;;;;6.94;57.31;93641.03;5042005;28;20171;-77
2023/03/15 05:12:47;;;;;;;25.23;13.97;;;;;;;7.26;57.92;93642.50;5044337;28;20195;-77
2023/03/15 05:15:12;;;;;;;29.00;14.17;;;;;;;7.48;56.64;93621.88;5044022;28;20171;-80
2023/03/15 05:17:38;;;;;;;29.47;15.10;;;;;;;8.19;54.14;93628.88;5038029;28;20519;-79
2023/03/15 05:20:10;;;;;;;27.10;12.97;;;;;;;9.27;51.14;93641.47;5038310;28;20634;-80
2023/03/15 05:22:36;;;;;;;26.77;13.00;;;;;;;9.72;48.22;93639.72;5018287;28;20178;-80
2023/03/15 05:25:02;;;;;;;28.83;14.40;;;;;;;9.55;48.57;93638.88;5032564;28;20176;-81
2023/03/15 05:27:28;;;;;;;30.70;16.00;;;;;;;9.24;50.05;93636.72;5035166;28;20283;-79
2023/03/15 05:29:53;;;;;;;34.43;15.83;;;;;;;8.88;50.99;93637.81;5034701;28;20238;-78
2023/03/15 05:32:18;;;;;;;24.23;12.50;;;;;;;8.48;51.06;93635.06;5029268;28;20559;-79
2023/03/15 05:34:44;;;;;;;32.63;14.43;;;;;;;8.26;52.25;93629.56;5033683;28;20176;-79
2023/03/15 05:37:11;;;;;;;31.47;13.23;;;;;;;8.02;53.44;93604.38;5033580;28;20694;-79
2023/03/15 05:39:36;;;;;;;27.33;14.23;;;;;;;8.10;54.95;93625.00;5033521;28;20214;-78
2023/03/15 05:42:02;;;;;;;39.87;15.50;;;;;;;8.04;55.30;93634.56;5033866;28;20275;-79
2023/03/15 05:44:27;;;;;;;33.90;16.57;;;;;;;7.99;54.91;93625.75;5033631;28;20251;-79
2023/03/15 05:46:53;;;;;;;36.17;15.90;;;;;;;7.84;55.31;93627.00;5033462;28;20179;-78
2023/03/15 05:49:18;;;;;;;27.40;13.07;;;;;;;7.76;54.73;93618.66;5034379;28;20171;-77
2023/03/15 05:51:43;;;;;;;20.07;9.10;;;;;;;7.77;51.00;93621.06;5034540;28;20718;-77
2023/03/15 05:54:09;;;;;;;13.60;6.07;;;;;;;7.59;49.54;93623.72;5034342;28;20186;-78
2023/03/15 05:56:35;;;;;;;12.40;5.20;;;;;;;7.62;49.99;93620.66;5033768;28;20175;-78
2023/03/15 05:59:01;;;;;;;8.27;4.50;;;;;;;7.72;48.60;93628.78;5033679;28;20258;-78
2023/03/15 06:01:27;;;;;;;10.90;4.63;;;;;;;7.71;48.53;93621.13;5034506;28;20178;-78
2023/03/15 06:03:52;;;;;;;7.33;4.23;;;;;;;7.70;48.63;93622.16;5033437;28;20577;-78
2023/03/15 06:06:18;;;;;;;8.70;3.80;;;;;;;8.04;47.10;93629.31;5034310;28;20180;-78
2023/03/15 06:08:43;;;;;;;10.47;4.50;;;;;;;8.46;46.98;93630.06;5034414;28;20199;-78
2023/03/15 06:11:09;;;;;;;11.63;3.80;;;;;;;9.09;44.40;93630.13;5034722;28;20202;-78
2023/03/15 06:13:34;;;;;;;10.73;3.67;;;;;;;10.72;41.45;93623.25;5033765;28;20211;-79
2023/03/15 06:15:59;;;;;;;8.43;3.90;;;;;;;11.80;38.13;93632.22;5016107;28;20179;-79
2023/03/15 06:18:25;;;;;;;9.97;3.20;;;;;;;11.61;37.81;93634.34;5033834;28;20171;-79
2023/03/15 06:20:50;;;;;;;12.10;3.70;;;;;;;12.38;36.10;93636.72;5033731;28;20210;-77
2023/03/15 06:23:15;;;;;;;5.60;3.57;;;;;;;12.90;34.78;93640.50;5033852;28;20180;-78
2023/03/15 06:25:41;;;;;;;7.50;3.20;;;;;;;12.77;35.08;93629.34;5033661;28;20903;-77
2023/03/15 06:28:06;;;;;;;7.83;3.60;;;;;;;12.61;34.99;93642.72;5033548;28;20254;-79
2023/03/15 06:30:32;;;;;;;6.17;3.53;;;;;;;12.32;36.29;93642.19;5033714;28;20176;-79
2023/03/15 06:32:57;;;;;;;8.43;3.70;;;;;;;11.86;36.51;93635.69;5033436;28;20175;-78
2023/03/15 06:35:23;;;;;;;8.43;4.00;;;;;;;11.32;37.17;93630.34;5034037;28;20277;-78
2023/03/15 06:37:48;;;;;;;7.93;3.83;;;;;;;12.15;37.06;93615.16;5032923;28;20180;-79
2023/03/15 06:40:14;;;;;;;5.10;3.33;;;;;;;12.94;35.77;93607.28;5033152;28;20607;-80
2023/03/15 06:42:40;;;;;;;7.47;3.57;;;;;;;13.29;35.29;93610.13;5033891;28;20179;-80
2023/03/15 06:45:07;;;;;;;7.30;3.97;;;;;;;13.41;34.26;93591.38;5033458;28;20238;-80
2023/03/15 06:47:33;;;;;;;14.43;3.63;;;;;;;13.95;34.71;93620.91;5032886;28;20682;-80
2023/03/15 06:49:58;;;;;;;6.40;3.60;;;;;;;14.52;33.01;93596.09;5033171;28;20192;-80
2023/03/15 06:52:24;;;;;;;7.27;3.50;;;;;;;15.21;32.41;93625.41;5033334;28;20718;-80
2023/03/15 06:54:49;;;;;;;7.05;3.50;;;;;;;15.92;30.15;93634.94;5032998;28;20175;-79
2023/03/15 06:57:15;;;;;;;13.40;3.70;;;;;;;16.74;28.80;93630.69;5033047;28;20593;-80
2023/03/15 06:59:40;;;;;;;7.55;3.35;;;;;;;17.66;28.48;93631.38;5033339;28;20639;-80
2023/03/15 07:02:12;;;;;;;7.40;4.00;;;;;;;18.18;28.24;93617.13;5033100;28;20183;-80
2023/03/15 07:04:37;;;;;;;7.80;3.67;;;;;;;18.98;26.71;93602.84;5033277;28;20183;-80
2023/03/15 07:07:03;;;;;;;6.82;3.70;;;;;;;19.63;26.29;93624.88;5032709;28;20192;-80
2023/03/15 07:09:28;;;;;;;7.85;4.30;;;;;;;19.34;26.56;93613.66;5015680;28;20207;-79
2023/03/15 07:11:53;;;;;;;9.15;4.82;;;;;;;19.22;26.04;93614.13;5032879;28;20176;-80
2023/03/15 07:14:19;;;;;;;9.35;4.28;;;;;;;19.47;26.38;93613.69;5032894;28;20222;-80
2023/03/15 07:16:46;;;;;;;8.57;4.00;;;;;;;19.57;26.46;93621.50;5032627;28;20218;-80
2023/03/15 07:19:12;;;;;;;7.88;4.00;;;;;;;;;;5032698;28;20267;-80
2023/03/15 07:21:37;;;;;;;7.57;4.22;;;;;;;19.08;26.35;93602.66;5032648;28;20207;-80
2023/03/15 07:24:03;;;;;;;8.25;4.95;;;;;;;19.32;25.80;93621.97;5032509;28;20270;-79
2023/03/15 07:26:28;;;;;;;8.32;4.07;;;;;;;19.41;27.33;93622.06;5032957;28;20258;-80
2023/03/15 07:28:55;;;;;;;8.93;4.60;;;;;;;19.20;26.38;93633.09;5032473;28;20665;-80
2023/03/15 07:31:21;;;;;;;7.63;4.65;;;;;;;18.54;26.93;93624.59;5032281;28;20172;-80
2023/03/15 07:33:46;;;;;;;11.43;4.43;;;;;;;17.79;27.36;93627.25;5032135;28;20182;-80
2023/03/15 07:36:13;;;;;;;5.88;4.18;;;;;;;17.15;27.83;93605.31;5032574;28;20172;-80
2023/03/15 07:38:38;;;;;;;12.52;4.75;;;;;;;17.03;27.75;93599.59;5032264;28;20274;-79
2023/03/15 07:41:05;;;;;;;12.45;4.47;;;;;;;16.94;28.58;93602.09;5032395;28;20718;-79
2023/03/15 07:43:31;;;;;;;11.95;5.03;;;;;;;16.89;28.75;93606.63;5031999;28;20631;-79
2023/03/15 07:45:56;;;;;;;9.45;5.38;;;;;;;16.92;30.37;93609.53;5031752;28;20265;-78
2023/03/15 07:48:22;;;;;;;9.27;4.80;;;;;;;16.72;29.00;93600.94;5032056;28;20195;-78
2023/03/15 07:50:47;;;;;;;7.13;3.90;;;;;;;16.82;30.91;93606.97;5032649;28;20187;-79
2023/03/15 07:53:12;;;;;;;8.02;3.80;;;;;;;16.92;29.42;93606.09;5035276;28;20176;-78
2023/03/15 07:55:38;;;;;;;7.07;4.32;;;;;;;16.84;28.57;93599.53;5032291;28;20179;-78
2023/03/15 07:58:04;;;;;;;18.52;4.20;;;;;;;16.69;29.26;93581.03;5031637;28;20206;-79
2023/03/15 08:00:31;;;;;;;6.03;4.50;;;;;;;16.78;28.71;93595.31;5032209;28;20171;-78
2023/03/15 08:02:56;;;;;;;7.75;4.50;;;;;;;16.13;29.66;93578.81;5032151;28;20249;-78
2023/03/15 08:05:23;;;;;;;7.88;4.20;;;;;;;16.00;30.30;93595.34;5032032;28;20183;-78
2023/03/15 08:07:48;;;;;;;8.25;3.78;;;;;;;15.62;29.95;93583.63;5031589;28;20222;-79
2023/03/15 08:10:15;;;;;;;8.43;4.15;;;;;;;15.70;30.72;93601.63;5031679;28;20608;-80
2023/03/15 08:12:41;;;;;;;9.82;3.75;;;;;;;15.47;30.96;93607.53;5031733;28;20643;-81
2023/03/15 08:15:15;;;;;;;11.85;2.97;;;;;;;15.48;30.55;93593.19;5031684;28;20172;-79
2023/03/15 08:17:42;;;;;;;3.85;3.13;;;;;;;15.25;30.70;93557.50;5014264;28;20218;-82
2023/03/15 08:20:10;;;;;;;6.45;3.20;;;;;;;15.04;31.49;93540.09;5031809;28;20234;-79
2023/03/15 08:22:37;;;;;;;5.35;3.28;;;;;;;15.17;32.10;93575.81;5031893;28;20191;-81
2023/03/15 08:25:04;;;;;;;5.25;3.35;;;;;;;15.26;32.26;93580.31;5031529;28;20172;-83
2023/03/15 08:27:29;;;;;;;5.97;3.58;;;;;;;15.47;33.23;93557.94;5031782;28;20282;-80
2023/03/15 08:29:55;;;;;;;7.15;3.08;;;;;;;15.80;31.54;93582.22;5031967;28;20254;-82
2023/03/15 08:32:20;;;;;;;4.82;3.10;;;;;;;15.64;30.73;93556.84;5032030;28;20218;-82
2023/03/15 08:34:46;;;;;;;3.13;2.80;;;;;;;15.67;32.08;93578.28;5031931;28;20602;-83
2023/03/15 08:37:12;;;;;;;6.47;3.33;;;;;;;15.78;31.52;93573.72;5031644;28;20164;-81
2023/03/15 08:39:38;;;;;;;6.63;3.13;;;;;;;15.64;30.77;93546.22;5031665;28;20168;-82
2023/03/15 08:42:04;;;;;;;5.15;3.42;;;;;;;15.44;31.21;93566.44;5030567;28;20184;-81
2023/03/15 08:44:30;;;;;;;7.75;3.25;;;;;;;15.41;31.74;93561.66;5029271;28;20670;-81
2023/03/15 08:46:57;;;;;;;6.68;3.05;;;;;;;15.44;31.09;93566.44;5014182;28;20208;-82
2023/03/15 08:49:22;;;;;;;5.68;3.20;;;;;;;15.50;31.82;93551.28;5031498;28;20651;-82
2023/03/15 08:51:48;;;;;;;4.40;3.22;;;;;;;15.55;32.16;93529.28;5031543;28;20176;-80
2023/03/15 08:54:13;;;;;;;5.53;3.33;;;;;;;15.76;31.74;93563.38;5031262;28;20187;-81
2023/03/15 08:56:40;;;;;;;10.38;3.33;;;;;;;15.76;31.05;93565.25;5031421;28;20184;-79
2023/03/15 08:59:06;;;;;;;7.05;3.72;;;;;;;15.57;31.77;93572.25;5034094;28;20202;-80
2023/03/15 09:01:33;;;;;;;11.68;5.22;;;;;;;15.21;31.87;93572.38;5035801;28;20167;-82
2023/03/15 09:04:00;;;;;;;9.23;3.13;;;;;;;14.86;32.71;93569.81;5017168;28;20167;-81
2023/03/15 09:06:26;;;;;;;10.85;3.80;;;;;;;14.36;33.96;93519.28;5033121;28;20186;-80
2023/03/15 09:08:52;;;;;;;5.38;3.30;;;;;;;14.45;33.33;93532.00;5033560;28;20195;-81
2023/03/15 09:11:18;;;;;;;8.37;3.43;;;;;;;14.56;33.86;93560.06;5034913;28;20214;-80
2023/03/15 09:13:43;;;;;;;9.10;3.75;;;;;;;14.19;34.35;93529.34;5034671;28;20207;-81
2023/03/15 09:16:09;;;;;;;6.43;3.43;;;;;;;14.00;34.03;93514.28;5034528;28;20174;-81
2023/03/15 09:18:34;;;;;;;9.97;3.90;;;;;;;14.00;34.21;93561.91;5035254;28;20619;-81
2023/03/15 09:21:00;;;;;;;7.20;4.23;;;;;;;13.55;34.94;93550.19;5017289;28;20738;-81
2023/03/15 09:23:26;;;;;;;7.30;4.93;;;;;;;13.15;36.16;93556.94;5035511;28;20247;-81
2023/03/15 09:25:51;;;;;;;6.87;3.37;;;;;;;13.13;36.40;93563.50;5034976;28;20172;-81
2023/03/15 09:28:17;;;;;;;12.40;3.83;;;;;;;12.90;37.63;93548.06;5035217;28;20190;-81
2023/03/15 09:30:42;;;;;;;8.80;3.80;;;;;;;12.39;38.16;93516.91;5035005;28;20179;-81
2023/03/15 09:33:08;;;;;;;10.87;3.57;;;;;;;12.54;37.44;93563.72;5034868;28;20171;-81
2023/03/15 09:35:33;;;;;;;6.50;3.37;;;;;;;12.23;37.89;93531.06;5035002;28;20176;-81
2023/03/15 09:37:59;;;;;;;10.43;4.03;;;;;;;12.59;38.04;93547.13;5034210;28;20171;-81
2023/03/15 09:40:26;;;;;;;8.03;3.73;;;;;;;12.80;37.38;93540.88;5033698;28;20631;-81
2023/03/15 09:43:00;;;;;;;7.23;3.77;;;;;;;12.79;38.99;93526.91;5032439;28;20187;-81
2023/03/15 09:45:56;;;;;;;6.63;3.70;;;;;;;13.29;37.00;93537.97;5032177;28;20219;-81
2023/03/15 09:48:31;;;;;;;9.87;3.80;;;;;;;13.48;36.41;93539.09;5030892;28;20752;-81
2023/03/15 09:51:29;;;;;;;6.23;3.67;;;;;;;13.47;36.53;93535.66;5030916;28;20218;-81
2023/03/15 09:54:00;;;;;;;9.63;4.03;;;;;;;13.16;36.54;93524.19;5005284;28;20200;-81
2023/03/15 09:57:13;;;;;;;7.83;3.37;;;;;;;13.07;36.97;93525.69;5026881;28;20210;-81
2023/03/15 09:59:43;;;;;;;5.87;3.57;;;;;;;13.03;37.05;93526.47;5008292;28;20172;-81
2023/03/15 10:02:20;;;;;;;10.37;4.13;;;;;;;12.81;37.34;93514.22;5013275;28;20566;-81
2023/03/15 10:04:48;;;;;;;5.20;3.40;;;;;;;12.46;38.46;93517.47;5032235;28;20195;-81
2023/03/15 10:07:15;;;;;;;8.60;3.70;;;;;;;12.59;38.18;93533.94;5032111;28;20192;-81
2023/03/15 10:09:42;;;;;;;8.70;3.63;;;;;;;12.51;37.91;93539.69;5031527;28;20210;-81
2023/03/15 10:12:27;;;;;;;7.60;3.70;;;;;;;12.42;38.40;93540.16;5032055;28;20234;-81
2023/03/15 10:14:53;;;;;;;11.97;3.50;;;;;;;12.51;38.36;93531.78;5031797;28;20573;-81
2023/03/15 10:17:32;;;;;;;5.50;3.13;;;;;;;12.57;38.86;93517.53;5032048;28;20176;-81
2023/03/15 10:20:01;;;;;;;11.13;4.87;;;;;;;12.83;38.83;93537.75;5031900;28;20185;-81
2023/03/15 10:22:35;;;;;;;4.97;3.33;;;;;;;12.88;38.24;93537.00;5032030;28;20183;-81
2023/03/15 10:25:08;;;;;;;5.90;3.57;;;;;;;12.97;37.82;93517.75;5031623;28;20603;-81
2023/03/15 10:27:41;;;;;;;6.90;3.30;;;;;;;13.29;37.52;93524.75;5031907;28;20830;-81
2023/03/15 10:30:25;;;;;;;6.30;3.27;;;;;;;13.51;38.57;93527.97;5031636;28;20727;-81
2023/03/15 10:33:01;;;;;;;5.97;3.67;;;;;;;13.59;37.47;93517.69;5031758;28;20207;-81
2023/03/15 10:35:26;;;;;;;13.07;4.20;;;;;;;13.32;36.90;93484.59;5031669;28;20226;-81
2023/03/15 10:37:52;;;;;;;10.60;3.47;;;;;;;13.23;37.33;93507.31;5031237;28;20183;-83
2023/03/15 10:40:50;;;;;;;6.73;3.60;;;;;;;13.20;37.34;93527.09;5031626;28;20713;-81
2023/03/15 10:43:23;;;;;;;9.07;3.67;;;;;;;13.03;37.68;93532.56;5031523;28;20188;-81
2023/03/15 10:45:59;;;;;;;5.43;3.57;;;;;;;12.88;37.95;93529.88;5031231;28;20295;-81
2023/03/15 10:48:36;;;;;;;5.70;3.30;;;;;;;12.84;37.99;93534.06;5031501;28;20269;-81
2023/03/15 10:51:20;;;;;;;7.20;3.20;;;;;;;12.75;38.16;93525.03;5031585;28;20191;-82
2023/03/15 10:54:03;;;;;;;8.07;4.37;;;;;;;12.45;38.25;93523.81;5031571;28;20179;-81
2023/03/15 10:56:42;;;;;;;8.00;3.37;;;;;;;12.03;38.92;93496.63;5031502;28;20188;-82
2023/03/15 10:59:16;;;;;;;5.27;3.40;;;;;;;12.21;39.18;93527.88;5031505;28;20164;-82
2023/03/15 11:01:42;;;;;;;7.67;3.20;;;;;;;12.28;39.16;93525.03;5031343;28;20179;-81
2023/03/15 11:04:07;;;;;;;5.23;3.10;;;;;;;12.38;38.70;93522.44;5031087;28;20190;-81
2023/03/15 11:06:44;;;;;;;9.53;3.47;;;;;;;12.29;40.10;93505.50;5031298;28;20175;-82
2023/03/15 11:09:13;;;;;;;5.70;3.33;;;;;;;12.33;38.75;93490.75;5031113;28;20310;-81
2023/03/15 11:11:57;;;;;;;9.00;3.33;;;;;;;12.48;39.25;93520.66;5031613;28;20180;-82
2023/03/15 11:14:23;;;;;;;7.07;3.53;;;;;;;12.50;39.17;93517.78;5030566;28;20178;-81
2023/03/15 11:16:55;;;;;;;6.03;3.53;;;;;;;12.61;38.76;93511.50;5031046;28;20229;-82
2023/03/15 11:19:25;;;;;;;11.80;3.83;;;;;;;12.64;39.41;93495.13;5041790;28;20182;-81
2023/03/15 11:21:51;;;;;;;10.90;3.67;;;;;;;12.76;38.64;93506.28;5050023;28;20619;-82
2023/03/15 11:24:24;;;;;;;11.00;3.50;;;;;;;12.88;38.23;93507.94;5051015;28;20183;-81
2023/03/15 11:26:53;;;;;;;7.93;3.33;;;;;;;12.80;38.07;93502.06;5014346;28;20606;-82
2023/03/15 11:29:31;;;;;;;10.17;3.73;;;;;;;12.94;37.79;93517.47;5030986;28;20258;-82
2023/03/15 11:31:59;;;;;;;7.60;3.97;;;;;;;12.89;37.89;93520.06;5030987;28;20195;-82